Time;durP1;ratioP1;P1;durP2;ratioP2;P2;SDS_P1;SDS_P2;PMS_P1;PMS_P2;Temp;Humidity;BMP_temperature;BMP_pressure;BME280_temperature;BME280_humidity;BME280_pressure;Samples;Min_cycle;Max_cycle;Signal;HPM_P1;HPM_P2
2022/09/11 00:00:35;;;;;;;;;;;;;;;12.22;86.39;99940.27;89477;1259;81663;-60
2022/09/11 00:03:02;;;;;;;;;;;;;;;12.27;86.47;99939.27;89519;1259;83765;-59
2022/09/11 00:05:12;;;;;;;;;;;;;;;12.28;86.57;99935.52;89501;1259;98968;-59
2022/09/11 00:07:21;;;;;;;;;;;;;;;12.30;86.62;99933.59;89554;1259;89576;-60
2022/09/11 00:09:27;;;;;;;;;;;;;;;12.29;86.68;99932.60;89572;1259;94297;-58
2022/09/11 00:11:39;;;;;;;;;;;;;;;12.35;86.66;99931.88;89497;1259;79945;-58
2022/09/11 00:13:48;;;;;;;;;;;;;;;12.37;86.59;99929.91;89577;1259;81536;-60
2022/09/11 00:15:55;;;;;;;;;;;;;;;12.42;86.59;99926.48;89530;1259;98802;-53
2022/09/11 00:18:02;;;;;;;;;;;;;;;12.46;86.52;99927.64;89493;1259;88744;-59
2022/09/11 00:20:10;;;;;;;;;;;;;;;12.48;86.57;99928.45;89510;1259;94546;-58
2022/09/11 00:22:18;;;;;;;;;;;;;;;12.46;86.51;99927.05;89517;1259;81860;-57
2022/09/11 00:24:24;;;;;;;;;;;;;;;12.48;86.65;99922.67;89498;1259;79782;-57
2022/09/11 00:26:32;;;;;;;;;;;;;;;12.51;86.84;99921.92;89494;1259;99022;-57
2022/09/11 00:28:39;;;;;;;;;;;;;;;12.55;86.62;99923.40;89480;1259;88787;-58
2022/09/11 00:30:46;;;;;;;;;;;;;;;12.57;86.54;99916.89;89505;1259;93805;-57
2022/09/11 00:32:53;;;;;;;;;;;;;;;12.56;86.59;99917.19;89474;1259;80465;-58
2022/09/11 00:35:03;;;;;;;;;;;;;;;12.56;86.47;99915.31;89483;1259;82363;-58
2022/09/11 00:37:11;;;;;;;;;;;;;;;12.58;86.40;99911.35;89526;1259;98444;-56
2022/09/11 00:39:20;;;;;;;;;;;;;;;12.57;86.31;99909.80;89507;1259;88670;-59
2022/09/11 00:41:29;;;;;;;;;;;;;;;12.55;86.31;99910.48;89508;1259;94554;-59
2022/09/11 00:43:58;;;;;;;;;;;;;;;12.58;86.13;99905.17;89479;1259;80123;-58
2022/09/11 00:46:06;;;;;;;;;;;;;;;12.54;86.22;99907.15;89507;1259;82778;-60
2022/09/11 00:48:16;;;;;;;;;;;;;;;12.53;86.24;99903.23;89555;1259;97742;-60
2022/09/11 00:50:25;;;;;;;;;;;;;;;12.54;86.23;99901.39;89570;1259;88527;-58
2022/09/11 00:52:34;;;;;;;;;;;;;;;12.51;86.19;99902.48;89519;1259;95184;-58
2022/09/11 00:54:48;;;;;;;;;;;;;;;12.49;86.25;99902.66;89579;1259;80965;-54
2022/09/11 00:56:57;;;;;;;;;;;;;;;12.43;86.35;99898.76;89548;1260;81403;-58
2022/09/11 00:59:05;;;;;;;;;;;;;;;12.36;86.43;99898.11;89600;1260;98654;-58
2022/09/11 01:01:13;;;;;;;;;;;;;;;12.30;86.47;99898.39;89574;1259;86304;-59
2022/09/11 01:03:22;;;;;;;;;;;;;;;12.25;86.48;99898.36;89585;1259;93682;-56
2022/09/11 01:05:33;;;;;;;;;;;;;;;12.22;86.59;99896.07;89492;1259;79614;-57
2022/09/11 01:07:41;;;;;;;;;;;;;;;12.22;86.63;99895.32;89513;1259;82423;-58
2022/09/11 01:09:50;;;;;;;;;;;;;;;12.22;86.77;99897.69;89496;1259;97666;-57
2022/09/11 01:12:03;;;;;;;;;;;;;;;12.23;86.89;99890.11;89526;1259;88925;-57
2022/09/11 01:14:17;;;;;;;;;;;;;;;12.25;87.00;99894.73;89508;1259;95324;-57
2022/09/11 01:16:30;;;;;;;;;;;;;;;12.30;87.00;99889.52;89382;1259;80444;-58
2022/09/11 01:18:40;;;;;;;;;;;;;;;12.32;87.06;99889.34;89394;1260;84403;-59
2022/09/11 01:21:00;;;;;;;;;;;;;;;12.34;87.17;99884.50;89379;1260;97109;-53
2022/09/11 01:23:35;;;;;;;;;;;;;;;12.37;87.24;99890.21;89405;1260;87280;-58
2022/09/11 01:25:59;;;;;;;;;;;;;;;12.37;87.38;99886.08;89254;1260;94815;-57
2022/09/11 01:28:07;;;;;;;;;;;;;;;12.33;87.46;99885.91;89354;1260;80279;-56
2022/09/11 01:30:17;;;;;;;;;;;;;;;12.33;87.40;99881.71;89404;1260;82645;-57
2022/09/11 01:32:33;;;;;;;;;;;;;;;12.38;87.44;99874.91;89398;1260;98213;-59
2022/09/11 01:34:45;;;;;;;;;;;;;;;12.39;87.30;99877.27;89424;1260;88158;-59
2022/09/11 01:36:57;;;;;;;;;;;;;;;12.44;87.34;99873.92;89425;1260;93299;-58
2022/09/11 01:39:06;;;;;;;;;;;;;;;12.41;87.29;99871.50;89433;1260;80575;-58
2022/09/11 01:41:18;;;;;;;;;;;;;;;12.44;87.18;99872.63;89441;1260;83028;-58
2022/09/11 01:43:29;;;;;;;;;;;;;;;12.45;87.25;99874.09;89433;1260;99356;-59
2022/09/11 01:45:37;;;;;;;;;;;;;;;12.46;87.32;99874.55;89508;1260;88269;-58
2022/09/11 01:47:45;;;;;;;;;;;;;;;12.43;87.25;99870.14;89446;1260;93123;-50
2022/09/11 01:49:54;;;;;;;;;;;;;;;12.43;87.31;99870.96;89479;1260;80509;-58
2022/09/11 01:52:05;;;;;;;;;;;;;;;12.38;87.35;99867.77;89424;1261;83396;-59
2022/09/11 01:54:16;;;;;;;;;;;;;;;12.33;87.34;99869.79;89442;1260;98155;-60
2022/09/11 01:56:27;;;;;;;;;;;;;;;12.33;87.29;99867.50;89440;1260;89237;-61
2022/09/11 01:58:35;;;;;;;;;;;;;;;12.34;87.15;99870.57;89401;1260;93589;-50
2022/09/11 02:00:44;;;;;;;;;;;;;;;12.33;87.11;99865.84;89467;1260;79664;-57
2022/09/11 02:02:55;;;;;;;;;;;;;;;12.30;87.19;99867.89;89384;1260;82409;-52
2022/09/11 02:05:06;;;;;;;;;;;;;;;12.26;87.26;99865.35;89399;1260;98556;-59
2022/09/11 02:07:19;;;;;;;;;;;;;;;12.27;87.14;99864.52;89456;1260;89299;-59
2022/09/11 02:09:31;;;;;;;;;;;;;;;12.26;87.03;99863.06;89414;1260;94551;-59
2022/09/11 02:11:40;;;;;;;;;;;;;;;12.22;87.06;99864.81;89384;1260;79973;-60
2022/09/11 02:13:55;;;;;;;;;;;;;;;12.16;87.11;99864.47;89409;1260;81778;-58
2022/09/11 02:16:07;;;;;;;;;;;;;;;12.12;87.24;99862.65;89368;1260;99387;-58
2022/09/11 02:18:20;;;;;;;;;;;;;;;12.14;87.25;99862.56;89413;1260;87802;-58
2022/09/11 02:20:30;;;;;;;;;;;;;;;12.11;87.21;99865.70;89439;1260;95208;-60
2022/09/11 02:22:39;;;;;;;;;;;;;;;12.12;87.36;99863.36;89392;1260;80894;-58
2022/09/11 02:24:46;;;;;;;;;;;;;;;12.16;87.37;99865.38;89490;1260;82463;-58
2022/09/11 02:26:55;;;;;;;;;;;;;;;12.16;87.43;99867.84;89295;1262;97993;-58
2022/09/11 02:29:03;;;;;;;;;;;;;;;12.16;87.63;99865.89;89458;1260;88528;-58
2022/09/11 02:31:11;;;;;;;;;;;;;;;12.18;87.63;99864.95;89460;1260;95419;-62
2022/09/11 02:33:32;;;;;;;;;;;;;;;12.19;87.64;99864.01;89387;1260;81589;-58
2022/09/11 02:35:44;;;;;;;;;;;;;;;12.24;87.71;99863.33;89102;1260;458822;-60
2022/09/11 02:37:58;;;;;;;;;;;;;;;12.28;87.70;99864.60;89387;1260;99034;-59
2022/09/11 02:40:27;;;;;;;;;;;;;;;12.28;87.78;99862.85;89374;1261;89106;-58
2022/09/11 02:42:48;;;;;;;;;;;;;;;12.33;87.79;99856.91;89392;1260;95488;-58
2022/09/11 02:45:01;;;;;;;;;;;;;;;12.35;87.76;99853.25;89339;1260;81440;-57
2022/09/11 02:47:20;;;;;;;;;;;;;;;12.37;87.63;99854.40;89399;1260;82027;-57
2022/09/11 02:49:36;;;;;;;;;;;;;;;12.42;87.65;99851.75;89386;1260;98454;-58
2022/09/11 02:51:51;;;;;;;;;;;;;;;12.40;87.65;99854.55;89374;1260;89061;-59
2022/09/11 02:54:06;;;;;;;;;;;;;;;12.36;87.71;99857.11;89363;1260;93777;-57
2022/09/11 02:56:17;;;;;;;;;;;;;;;12.43;87.72;99854.84;89346;1260;81652;-58
2022/09/11 02:58:28;;;;;;;;;;;;;;;12.43;87.65;99854.50;89355;1260;82415;-56
2022/09/11 03:00:36;;;;;;;;;;;;;;;12.37;87.69;99852.98;89347;1260;99814;-56
2022/09/11 03:02:44;;;;;;;;;;;;;;;12.31;87.76;99851.34;89368;1260;89509;-56
2022/09/11 03:04:51;;;;;;;;;;;;;;;12.24;87.88;99854.16;89250;1262;94905;-58
2022/09/11 03:07:01;;;;;;;;;;;;;;;12.18;87.97;99851.67;89403;1260;79881;-57
2022/09/11 03:09:08;;;;;;;;;;;;;;;12.22;87.88;99852.83;89415;1260;81813;-58
2022/09/11 03:11:16;;;;;;;;;;;;;;;12.18;87.96;99848.09;89406;1260;98589;-59
2022/09/11 03:13:23;;;;;;;;;;;;;;;12.21;87.72;99848.16;89417;1261;88697;-58
2022/09/11 03:15:31;;;;;;;;;;;;;;;12.20;87.86;99842.70;89429;1260;95349;-61
2022/09/11 03:17:37;;;;;;;;;;;;;;;12.24;87.83;99839.08;89412;1260;81116;-61
2022/09/11 03:19:44;;;;;;;;;;;;;;;12.25;87.83;99841.11;89436;1260;81700;-60
2022/09/11 03:21:52;;;;;;;;;;;;;;;12.21;87.93;99840.34;89414;1260;98996;-60
2022/09/11 03:23:59;;;;;;;;;;;;;;;12.16;87.97;99843.55;89436;1260;85481;-61
2022/09/11 03:26:06;;;;;;;;;;;;;;;12.14;87.96;99845.44;89394;1260;94560;-60
2022/09/11 03:28:13;;;;;;;;;;;;;;;12.13;88.12;99841.11;89387;1260;82001;-60
2022/09/11 03:30:22;;;;;;;;;;;;;;;12.15;88.27;99844.06;89384;1260;80773;-56
2022/09/11 03:32:29;;;;;;;;;;;;;;;12.15;88.25;99839.14;89375;1260;98326;-57
2022/09/11 03:34:37;;;;;;;;;;;;;;;12.14;88.37;99838.19;89427;1260;88947;-59
2022/09/11 03:36:44;;;;;;;;;;;;;;;12.12;88.47;99839.86;89372;1260;95201;-58
2022/09/11 03:38:54;;;;;;;;;;;;;;;12.12;88.45;99838.54;89336;1260;79924;-58
2022/09/11 03:41:02;;;;;;;;;;;;;;;12.11;88.41;99837.90;89383;1260;83383;-59
2022/09/11 03:43:11;;;;;;;;;;;;;;;12.13;88.44;99837.45;89397;1260;98579;-59
2022/09/11 03:45:19;;;;;;;;;;;;;;;12.06;88.44;99836.85;89378;1260;89311;-58
2022/09/11 03:47:26;;;;;;;;;;;;;;;12.05;88.49;99833.35;89340;1260;95594;-52
2022/09/11 03:49:33;;;;;;;;;;;;;;;12.09;88.45;99836.80;89408;1261;79634;-57
2022/09/11 03:51:40;;;;;;;;;;;;;;;12.10;88.36;99838.78;89419;1260;81071;-58
2022/09/11 03:53:50;;;;;;;;;;;;;;;12.11;88.33;99838.50;89407;1260;99169;-57
2022/09/11 03:55:57;;;;;;;;;;;;;;;12.11;88.39;99837.01;89454;1260;88570;-56
2022/09/11 03:58:05;;;;;;;;;;;;;;;12.11;88.24;99837.23;89454;1260;93974;-56
2022/09/11 04:00:13;;;;;;;;;;;;;;;12.14;88.17;99833.19;89341;1262;83433;-60
2022/09/11 04:02:22;;;;;;;;;;;;;;;12.09;88.21;99834.88;89422;1260;82921;-60
2022/09/11 04:04:29;;;;;;;;;;;;;;;12.04;88.37;99833.15;89414;1260;98543;-59
2022/09/11 04:06:36;;;;;;;;;;;;;;;12.03;88.34;99831.67;89400;1260;88463;-60
2022/09/11 04:08:44;;;;;;;;;;;;;;;12.04;88.38;99832.92;89405;1260;94732;-59
2022/09/11 04:10:57;;;;;;;;;;;;;;;12.06;88.23;99834.98;89345;1260;82257;-58
2022/09/11 04:13:12;;;;;;;;;;;;;;;12.05;88.25;99835.46;89248;1262;81097;-58
2022/09/11 04:15:22;;;;;;;;;;;;;;;12.06;88.28;99835.01;89400;1261;99781;-58
2022/09/11 04:17:33;;;;;;;;;;;;;;;12.01;88.42;99832.31;89261;1262;89291;-58
2022/09/11 04:19:40;;;;;;;;;;;;;;;11.96;88.51;99833.66;89412;1260;93189;-58
2022/09/11 04:21:49;;;;;;;;;;;;;;;11.99;88.48;99835.31;89360;1261;81815;-58
2022/09/11 04:24:00;;;;;;;;;;;;;;;12.02;88.31;99831.48;89411;1260;82551;-55
2022/09/11 04:26:15;;;;;;;;;;;;;;;12.04;88.40;99829.39;89312;1262;99635;-55
2022/09/11 04:28:23;;;;;;;;;;;;;;;12.06;88.32;99833.97;89456;1261;89160;-56
2022/09/11 04:30:30;;;;;;;;;;;;;;;12.10;88.41;99835.20;89448;1260;94398;-57
2022/09/11 04:32:37;;;;;;;;;;;;;;;12.09;88.38;99833.63;89427;1261;80382;-57
2022/09/11 04:34:45;;;;;;;;;;;;;;;12.14;88.31;99834.02;89451;1260;82386;-59
2022/09/11 04:36:54;;;;;;;;;;;;;;;12.15;88.44;99834.47;89443;1260;98683;-59
2022/09/11 04:39:01;;;;;;;;;;;;;;;12.14;88.28;99827.90;89434;1260;89402;-56
2022/09/11 04:41:09;;;;;;;;;;;;;;;12.18;88.23;99825.71;89419;1261;95149;-56
2022/09/11 04:43:19;;;;;;;;;;;;;;;12.19;88.16;99823.46;89374;1261;81800;-56
2022/09/11 04:45:32;;;;;;;;;;;;;;;12.20;88.12;99824.59;89381;1260;82948;-58
2022/09/11 04:47:39;;;;;;;;;;;;;;;12.15;88.24;99823.77;89363;1260;98867;-57
2022/09/11 04:49:47;;;;;;;;;;;;;;;12.17;88.23;99822.38;89407;1260;88856;-56
2022/09/11 04:51:54;;;;;;;;;;;;;;;12.14;88.18;99817.95;89262;1262;97138;-56
2022/09/11 04:54:02;;;;;;;;;;;;;;;12.11;88.18;99814.58;89346;1261;82247;-59
2022/09/11 04:56:12;;;;;;;;;;;;;;;12.09;88.23;99818.14;89396;1260;82657;-59
2022/09/11 04:58:22;;;;;;;;;;;;;;;12.09;88.26;99817.75;89370;1260;98852;-59
2022/09/11 05:00:30;;;;;;;;;;;;;;;12.13;88.19;99814.86;89370;1260;88188;-58
2022/09/11 05:02:37;;;;;;;;;;;;;;;12.12;88.26;99813.33;89372;1260;95567;-60
2022/09/11 05:04:44;;;;;;;;;;;;;;;12.14;88.23;99812.73;89374;1261;80247;-56
2022/09/11 05:06:54;;;;;;;;;;;;;;;12.14;88.32;99811.83;89432;1260;83284;-57
2022/09/11 05:09:07;;;;;;;;;;;;;;;12.13;88.31;99812.82;89440;1260;98681;-59
2022/09/11 05:11:15;;;;;;;;;;;;;;;12.15;88.30;99809.64;89464;1260;90196;-60
2022/09/11 05:13:23;;;;;;;;;;;;;;;12.17;88.28;99813.77;89442;1260;94171;-59
2022/09/11 05:15:31;;;;;;;;;;;;;;;12.17;88.25;99813.23;89455;1261;82134;-60
2022/09/11 05:17:38;;;;;;;;;;;;;;;12.19;88.27;99809.72;89459;1260;82429;-60
2022/09/11 05:19:45;;;;;;;;;;;;;;;12.19;88.30;99806.59;89437;1261;98465;-56
2022/09/11 05:21:52;;;;;;;;;;;;;;;12.14;88.38;99809.44;89460;1260;89893;-56
2022/09/11 05:24:01;;;;;;;;;;;;;;;12.14;88.45;99804.04;89433;1261;94728;-58
2022/09/11 05:26:14;;;;;;;;;;;;;;;12.16;88.44;99805.05;89399;1260;81833;-58
2022/09/11 05:28:21;;;;;;;;;;;;;;;12.17;88.43;99801.85;89434;1260;82353;-58
2022/09/11 05:30:28;;;;;;;;;;;;;;;12.17;88.32;99804.06;89341;1261;98118;-56
2022/09/11 05:32:35;;;;;;;;;;;;;;;12.22;88.27;99807.83;89268;1262;90276;-56
2022/09/11 05:34:42;;;;;;;;;;;;;;;12.21;88.40;99809.09;89376;1260;95329;-59
2022/09/11 05:36:50;;;;;;;;;;;;;;;12.12;88.46;99808.67;89370;1260;81152;-59
2022/09/11 05:39:00;;;;;;;;;;;;;;;12.11;88.48;99809.43;89393;1261;82395;-58
2022/09/11 05:41:10;;;;;;;;;;;;;;;12.12;88.53;99809.08;89407;1260;98857;-59
2022/09/11 05:43:18;;;;;;;;;;;;;;;12.09;88.43;99811.96;89378;1260;87801;-59
2022/09/11 05:45:26;;;;;;;;;;;;;;;12.02;88.43;99811.98;89379;1260;95528;-58
2022/09/11 05:47:32;;;;;;;;;;;;;;;11.98;88.48;99812.88;89342;1261;82072;-58
2022/09/11 05:49:39;;;;;;;;;;;;;;;12.00;88.42;99813.91;89440;1260;82415;-58
2022/09/11 05:51:46;;;;;;;;;;;;;;;11.97;88.43;99812.62;89385;1261;97730;-58
2022/09/11 05:53:56;;;;;;;;;;;;;;;12.05;88.38;99809.10;89416;1261;89355;-58
2022/09/11 05:56:13;;;;;;;;;;;;;;;12.09;88.41;99812.30;89424;1262;95504;-58
2022/09/11 05:58:21;;;;;;;;;;;;;;;12.14;88.36;99807.58;89424;1261;82033;-57
2022/09/11 06:00:28;;;;;;;;;;;;;;;12.19;88.35;99809.80;89396;1261;82383;-56
2022/09/11 06:02:35;;;;;;;;;;;;;;;12.23;88.40;99809.61;89436;1260;97197;-56
2022/09/11 06:04:42;;;;;;;;;;;;;;;12.26;88.35;99811.03;89400;1261;88567;-58
2022/09/11 06:06:49;;;;;;;;;;;;;;;12.21;88.32;99811.55;89297;1262;96359;-59
2022/09/11 06:08:57;;;;;;;;;;;;;;;12.20;88.31;99813.38;89385;1260;80645;-59
2022/09/11 06:11:06;;;;;;;;;;;;;;;12.16;88.32;99819.86;89388;1260;82544;-59
2022/09/11 06:13:16;;;;;;;;;;;;;;;12.11;88.29;99820.25;89376;1261;98435;-59
2022/09/11 06:15:24;;;;;;;;;;;;;;;12.04;88.37;99822.56;89362;1260;88808;-58
2022/09/11 06:17:31;;;;;;;;;;;;;;;12.08;88.32;99820.17;89360;1260;94384;-58
2022/09/11 06:19:39;;;;;;;;;;;;;;;12.10;88.27;99815.84;89343;1261;80443;-59
2022/09/11 06:21:47;;;;;;;;;;;;;;;12.12;88.43;99814.25;89351;1260;82515;-59
2022/09/11 06:23:55;;;;;;;;;;;;;;;12.16;88.37;99811.39;89370;1261;98490;-56
2022/09/11 06:26:07;;;;;;;;;;;;;;;12.18;88.54;99812.14;89370;1261;88455;-56
2022/09/11 06:28:15;;;;;;;;;;;;;;;12.23;88.37;99812.20;89375;1262;95610;-59
2022/09/11 06:30:22;;;;;;;;;;;;;;;12.28;88.40;99813.86;89371;1261;82209;-58
2022/09/11 06:32:32;;;;;;;;;;;;;;;12.28;88.31;99816.39;89418;1261;83559;-58
2022/09/11 06:34:39;;;;;;;;;;;;;;;12.34;88.22;99816.41;89390;1261;97270;-56
2022/09/11 06:36:47;;;;;;;;;;;;;;;12.31;88.31;99816.47;89388;1261;88908;-57
2022/09/11 06:38:56;;;;;;;;;;;;;;;12.33;88.21;99818.11;89451;1261;95313;-58
2022/09/11 06:41:11;;;;;;;;;;;;;;;12.37;88.24;99818.86;89386;1262;81841;-57
2022/09/11 06:43:20;;;;;;;;;;;;;;;12.40;88.33;99820.55;89422;1260;83118;-58
2022/09/11 06:45:30;;;;;;;;;;;;;;;12.41;88.38;99815.00;89410;1261;101030;-57
2022/09/11 06:47:36;;;;;;;;;;;;;;;12.43;88.29;99812.58;89371;1261;87305;-57
2022/09/11 06:49:44;;;;;;;;;;;;;;;12.39;88.40;99819.27;89420;1261;95189;-55
2022/09/11 06:51:51;;;;;;;;;;;;;;;12.38;88.47;99818.77;89293;1262;83370;-55
2022/09/11 06:54:02;;;;;;;;;;;;;;;12.42;88.41;99820.33;89404;1261;83271;-58
2022/09/11 06:56:12;;;;;;;;;;;;;;;12.50;88.37;99818.46;89396;1261;97640;-58
2022/09/11 06:58:20;;;;;;;;;;;;;;;12.61;88.23;99820.40;89382;1260;88446;-57
2022/09/11 07:00:28;;;;;;;;;;;;;;;12.67;88.30;99817.13;89366;1261;96914;-59
2022/09/11 07:02:35;;;;;;;;;;;;;;;12.64;88.21;99815.63;89388;1260;82011;-58
2022/09/11 07:04:46;;;;;;;;;;;;;;;12.63;88.30;99816.77;89392;1260;81518;-57
2022/09/11 07:06:53;;;;;;;;;;;;;;;12.65;88.12;99819.10;89366;1261;98077;-58
2022/09/11 07:09:02;;;;;;;;;;;;;;;12.64;88.14;99818.90;89328;1262;87251;-57
2022/09/11 07:11:12;;;;;;;;;;;;;;;12.60;88.11;99818.50;89360;1261;95767;-56
2022/09/11 07:13:23;;;;;;;;;;;;;;;12.53;88.13;99817.41;89384;1262;82140;-58
2022/09/11 07:15:36;;;;;;;;;;;;;;;12.48;88.10;99816.98;89338;1262;81342;-58
2022/09/11 07:17:43;;;;;;;;;;;;;;;12.45;88.08;99815.41;89387;1261;96211;-57
2022/09/11 07:19:51;;;;;;;;;;;;;;;12.40;88.09;99814.80;89407;1260;89220;-58
2022/09/11 07:22:01;;;;;;;;;;;;;;;12.44;87.91;99813.33;89460;1261;94230;-58
2022/09/11 07:24:14;;;;;;;;;;;;;;;12.45;87.92;99813.14;89412;1260;82260;-58
2022/09/11 07:26:27;;;;;;;;;;;;;;;12.48;87.84;99814.69;89382;1260;80336;-58
2022/09/11 07:28:34;;;;;;;;;;;;;;;12.40;87.78;99813.27;89432;1261;98134;-58
2022/09/11 07:30:41;;;;;;;;;;;;;;;12.35;87.81;99813.54;89317;1262;87599;-58
2022/09/11 07:32:52;;;;;;;;;;;;;;;12.37;87.86;99815.18;89375;1261;95204;-58
2022/09/11 07:35:02;;;;;;;;;;;;;;;12.37;87.83;99813.48;89377;1260;82560;-58
2022/09/11 07:37:16;;;;;;;;;;;;;;;12.41;88.06;99811.24;89377;1262;81667;-59
2022/09/11 07:39:26;;;;;;;;;;;;;;;12.50;87.96;99805.05;89403;1260;97293;-58
2022/09/11 07:41:34;;;;;;;;;;;;;;;12.53;87.93;99809.19;89361;1260;88978;-58
2022/09/11 07:43:44;;;;;;;;;;;;;;;12.57;87.94;99810.64;89398;1261;94819;-58
2022/09/11 07:45:55;;;;;;;;;;;;;;;12.61;87.92;99809.91;89395;1261;82135;-57
2022/09/11 07:48:05;;;;;;;;;;;;;;;12.60;87.84;99814.05;89415;1262;83271;-56
2022/09/11 07:50:17;;;;;;;;;;;;;;;12.62;87.85;99814.08;89371;1261;97236;-59
2022/09/11 07:52:26;;;;;;;;;;;;;;;12.61;87.92;99811.16;89389;1261;88974;-59
2022/09/11 07:54:33;;;;;;;;;;;;;;;12.59;87.77;99812.66;89362;1260;95936;-56
2022/09/11 07:56:41;;;;;;;;;;;;;;;12.60;87.84;99816.21;89381;1261;82108;-56
2022/09/11 07:58:52;;;;;;;;;;;;;;;12.56;87.72;99814.55;89411;1261;81232;-59
2022/09/11 08:01:02;;;;;;;;;;;;;;;12.59;87.70;99815.25;89366;1261;98150;-59
2022/09/11 08:03:09;;;;;;;;;;;;;;;12.58;87.86;99814.09;89421;1261;89199;-59
2022/09/11 08:05:19;;;;;;;;;;;;;;;12.57;87.72;99814.02;89405;1261;94779;-59
2022/09/11 08:07:26;;;;;;;;;;;;;;;12.65;87.56;99819.97;89415;1260;82257;-59
2022/09/11 08:09:35;;;;;;;;;;;;;;;12.67;87.52;99818.30;89385;1261;81946;-56
2022/09/11 08:11:47;;;;;;;;;;;;;;;12.65;87.50;99817.60;89401;1261;99205;-57
2022/09/11 08:13:55;;;;;;;;;;;;;;;12.65;87.51;99817.05;89453;1261;89419;-58
2022/09/11 08:16:03;;;;;;;;;;;;;;;12.68;87.48;99812.36;89373;1261;95642;-58
2022/09/11 08:18:10;;;;;;;;;;;;;;;12.72;87.33;99806.83;89393;1262;82541;-59
2022/09/11 08:20:17;;;;;;;;;;;;;;;12.78;87.38;99808.30;89393;1261;81785;-59
2022/09/11 08:22:26;;;;;;;;;;;;;;;12.79;87.40;99810.16;89373;1261;97801;-59
2022/09/11 08:24:33;;;;;;;;;;;;;;;12.76;87.35;99806.65;89366;1260;88922;-56
2022/09/11 08:26:40;;;;;;;;;;;;;;;12.76;87.33;99810.65;89369;1262;94347;-57
2022/09/11 08:28:49;;;;;;;;;;;;;;;12.68;87.46;99815.00;89360;1262;80552;-59
2022/09/11 08:31:00;;;;;;;;;;;;;;;12.70;87.24;99816.31;89379;1261;82121;-60
2022/09/11 08:33:08;;;;;;;;;;;;;;;12.65;87.08;99816.01;89357;1261;97497;-59
2022/09/11 08:35:17;;;;;;;;;;;;;;;12.69;86.97;99819.41;89418;1261;88850;-57
2022/09/11 08:37:28;;;;;;;;;;;;;;;12.67;87.04;99820.84;89374;1261;93959;-57
2022/09/11 08:39:38;;;;;;;;;;;;;;;12.61;87.10;99815.70;89393;1262;82799;-58
2022/09/11 08:41:48;;;;;;;;;;;;;;;12.62;87.16;99817.94;89442;1262;81298;-58
2022/09/11 08:44:00;;;;;;;;;;;;;;;12.67;87.18;99820.20;89431;1261;98967;-58
2022/09/11 08:46:09;;;;;;;;;;;;;;;12.68;87.37;99819.95;89469;1261;88886;-58
2022/09/11 08:48:22;;;;;;;;;;;;;;;12.77;87.05;99816.15;89431;1261;94947;-58
2022/09/11 08:50:32;;;;;;;;;;;;;;;12.75;86.98;99814.58;89385;1262;80792;-58
2022/09/11 08:52:41;;;;;;;;;;;;;;;12.73;86.99;99818.46;89432;1260;82918;-58
2022/09/11 08:54:49;;;;;;;;;;;;;;;12.70;87.14;99822.27;89379;1261;98927;-59
2022/09/11 08:57:17;;;;;;;;;;;;;;;12.64;87.14;99825.02;89369;1261;88376;-59
2022/09/11 08:59:33;;;;;;;;;;;;;;;12.56;87.13;99826.31;89436;1260;93862;-59
2022/09/11 09:01:49;;;;;;;;;;;;;;;12.48;87.22;99830.90;89345;1261;81219;-59
2022/09/11 09:04:08;;;;;;;;;;;;;;;12.49;87.00;99830.77;89407;1261;82909;-59
2022/09/11 09:06:29;;;;;;;;;;;;;;;12.47;86.96;99833.73;89284;1262;100450;-59
2022/09/11 09:08:50;;;;;;;;;;;;;;;12.44;87.10;99836.00;89391;1260;88156;-59
2022/09/11 09:11:03;;;;;;;;;;;;;;;12.36;87.08;99840.52;89363;1262;95400;-58
2022/09/11 09:13:22;;;;;;;;;;;;;;;12.32;87.03;99840.08;89358;1261;82396;-58
2022/09/11 09:15:41;;;;;;;;;;;;;;;12.24;87.17;99840.48;89391;1263;81704;-58
2022/09/11 09:17:52;;;;;;;;;;;;;;;12.16;87.15;99845.64;89370;1262;96410;-59
2022/09/11 09:20:01;;;;;;;;;;;;;;;12.19;87.07;99850.83;89393;1261;88235;-56
2022/09/11 09:22:15;;;;;;;;;;;;;;;12.20;87.01;99851.58;89360;1261;93805;-56
2022/09/11 09:24:24;;;;;;;;;;;;;;;12.08;86.92;99847.50;89406;1260;82136;-56
2022/09/11 09:26:37;;;;;;;;;;;;;;;12.12;87.01;99849.52;89455;1261;81870;-56
2022/09/11 09:28:47;;;;;;;;;;;;;;;12.17;86.94;99850.93;89407;1260;98704;-56
2022/09/11 09:30:58;;;;;;;;;;;;;;;12.18;86.81;99854.77;89404;1261;87352;-56
2022/09/11 09:33:16;;;;;;;;;;;;;;;12.14;86.89;99853.89;89400;1260;93871;-56
2022/09/11 09:35:27;;;;;;;;;;;;;;;12.07;86.66;99858.27;89425;1261;80176;-56
2022/09/11 09:37:35;;;;;;;;;;;;;;;11.96;86.47;99856.98;89416;1261;81420;-55
2022/09/11 09:39:42;;;;;;;;;;;;;;;11.86;86.36;99856.58;89417;1263;98461;-56
2022/09/11 09:42:15;;;;;;;;;;;;;;;11.87;86.30;99856.04;89411;1260;89130;-56
2022/09/11 09:44:32;;;;;;;;;;;;;;;11.99;86.37;99856.02;89420;1260;94995;-57
2022/09/11 09:46:42;;;;;;;;;;;;;;;12.03;86.32;99855.80;89395;1261;81049;-58
2022/09/11 09:48:50;;;;;;;;;;;;;;;11.99;86.24;99854.44;89409;1261;79906;-57
2022/09/11 09:50:58;;;;;;;;;;;;;;;12.00;86.28;99850.48;89399;1260;96532;-56
2022/09/11 09:53:10;;;;;;;;;;;;;;;12.12;86.25;99851.15;89368;1261;89242;-56
2022/09/11 09:55:21;;;;;;;;;;;;;;;12.19;86.10;99852.80;89396;1260;93571;-58
2022/09/11 09:57:31;;;;;;;;;;;;;;;12.23;86.06;99848.27;89377;1261;81894;-58
2022/09/11 09:59:41;;;;;;;;;;;;;;;12.32;86.23;99844.34;89345;1260;82284;-57
2022/09/11 10:01:50;;;;;;;;;;;;;;;12.46;86.35;99842.73;89454;1262;98848;-57
2022/09/11 10:04:11;;;;;;;;;;;;;;;12.60;86.15;99840.94;89437;1260;88789;-57
2022/09/11 10:06:20;;;;;;;;;;;;;;;12.75;86.02;99839.27;89407;1262;93325;-58
2022/09/11 10:08:34;;;;;;;;;;;;;;;12.83;85.93;99836.91;89429;1261;80935;-59
2022/09/11 10:10:41;;;;;;;;;;;;;;;12.92;85.75;99837.58;89451;1261;80166;-59
2022/09/11 10:12:49;;;;;;;;;;;;;;;13.07;85.67;99838.21;89428;1260;96614;-59
2022/09/11 10:15:02;;;;;;;;;;;;;;;13.21;85.67;99839.41;89481;1262;89237;-59
2022/09/11 10:17:23;;;;;;;;;;;;;;;13.25;85.58;99842.48;89291;1262;94733;-59
2022/09/11 10:19:43;;;;;;;;;;;;;;;13.35;85.75;99843.31;89405;1260;81584;-58
2022/09/11 10:21:52;;;;;;;;;;;;;;;13.47;85.50;99846.96;89435;1260;80573;-58
2022/09/11 10:24:01;;;;;;;;;;;;;;;13.49;85.46;99847.80;89440;1261;98240;-58
2022/09/11 10:26:16;;;;;;;;;;;;;;;13.57;85.46;99847.09;89403;1260;87831;-59
2022/09/11 10:28:31;;;;;;;;;;;;;;;13.63;85.23;99841.27;89411;1260;93290;-56
2022/09/11 10:30:42;;;;;;;;;;;;;;;13.67;85.16;99841.25;89357;1260;82154;-56
2022/09/11 10:32:50;;;;;;;;;;;;;;;13.74;85.19;99838.05;89417;1263;82647;-56
2022/09/11 10:34:59;;;;;;;;;;;;;;;13.75;85.29;99837.88;89070;1261;454461;-56
2022/09/11 10:37:22;;;;;;;;;;;;;;;13.86;85.28;99835.46;89393;1260;88879;-56
2022/09/11 10:39:34;;;;;;;;;;;;;;;14.02;85.11;99826.94;89398;1260;95399;-56
2022/09/11 10:41:48;;;;;;;;;;;;;;;14.07;85.19;99829.80;89394;1260;79937;-55
2022/09/11 10:43:59;;;;;;;;;;;;;;;14.22;85.27;99824.41;89403;1260;82044;-58
2022/09/11 10:46:27;;;;;;;;;;;;;;;14.44;84.94;99818.66;89423;1260;98672;-57
2022/09/11 10:48:37;;;;;;;;;;;;;;;14.59;84.91;99816.95;89441;1260;87300;-58
2022/09/11 10:50:44;;;;;;;;;;;;;;;14.70;84.74;99810.74;89404;1261;94005;-59
2022/09/11 10:53:03;;;;;;;;;;;;;;;14.89;84.53;99807.99;89405;1262;79823;-59
2022/09/11 10:55:15;;;;;;;;;;;;;;;15.07;84.44;99809.29;89446;1260;81069;-59
2022/09/11 10:57:28;;;;;;;;;;;;;;;15.11;84.44;99810.14;89417;1261;97557;-59
2022/09/11 10:59:44;;;;;;;;;;;;;;;15.25;84.24;99806.65;89392;1262;89528;-56
2022/09/11 11:01:56;;;;;;;;;;;;;;;15.34;84.13;99806.66;89415;1260;95402;-56
2022/09/11 11:04:04;;;;;;;;;;;;;;;15.46;83.88;99805.77;89405;1261;77858;-56
2022/09/11 11:06:26;;;;;;;;;;;;;;;15.46;83.89;99810.73;89432;1261;81021;-56
2022/09/11 11:09:04;;;;;;;;;;;;;;;15.55;83.93;99808.69;89425;1260;99056;-58
2022/09/11 11:11:33;;;;;;;;;;;;;;;15.62;83.61;99806.73;89328;1260;87866;-58
2022/09/11 11:13:54;;;;;;;;;;;;;;;15.72;83.62;99805.34;89457;1261;94834;-57
2022/09/11 11:16:14;;;;;;;;;;;;;;;15.76;83.59;99806.09;89400;1260;80461;-60
2022/09/11 11:18:44;;;;;;;;;;;;;;;15.79;83.11;99806.58;89410;1260;80652;-59